Khorram Abad, Iran

3:19 PM IRDT on July 27, 2016 (GMT +0430)
Khoram Abad | | Change Station

Elev 3789 ft 33.44 °N, 48.28 °E | Updated 55 minutes ago

Clear
Clear
99 °F
Feels Like 99 °F
N
12
Wind Variable Wind from NW

Today
High -- | Low -- °F
--% Chance of Precip.
Yesterday
High -- | Low -- °F
Precip. -- in
Pressure 29.83 in
Visibility -9999.0 miles
Clouds
Dew Point 30 °F
Humidity 9%
Rainfall 0.00 in
Snow Depth Not available.
6:26 AM 8:20 PM
Last Quarter, 44% visible
METAR OICK 270954Z 31010KT CAVOK 37/M01 Q1010
Pressure 29.83 in
Visibility -9999.0 miles
Clouds
Dew Point 30 °F
Humidity 9%
Rainfall 0.00 in
Snow Depth Not available.
6:26 AM 8:20 PM
Last Quarter, 44% visible
METAR OICK 270954Z 31010KT CAVOK 37/M01 Q1010

10-Day Weather Forecast

No radar image for this location.
×

Almanac

Astronomy

Jul. 27, 2016 Rise Set
Actual Time
Civil Twilight
Nautical Twilight
Astronomical Twilight
Moon
Length of Visible Light
Length of Day
Tomorrow will be .
, % of the Moon is Illuminated

Today's Extremes

Country Highs Country Lows

Community

WunderPhotos

Upload Photos

1,927,825 photos uploaded!

WunderBlog® & News

Nearby

Air Quality

  Air Quality AQ Index Pollutant
Not available.

Snow Depth

Station Depth Elevation

Earthquake Activity

City Distance Mag. Time & Date
Minimum magnitude displayed is 2.5.

Coastal Water Temperatures

Place Temperature

Stations

Nearby Weather Stations

Station Location Temp. Windchill Dew Point Humidity Wind Precip. Elev Updated Type